Time;durP1;ratioP1;P1;durP2;ratioP2;P2;SDS_P1;SDS_P2;PMS_P1;PMS_P2;Temp;Humidity;BMP_temperature;BMP_pressure;BME280_temperature;BME280_humidity;BME280_pressure;Samples;Min_cycle;Max_cycle;Signal;HPM_P1;HPM_P2
2023/12/26 00:01:27;;;;;;;3.78;1.27;;;10.40;99.90;;;;;;4975156;28;20490;-62
2023/12/26 00:03:53;;;;;;;3.42;1.30;;;10.30;99.90;;;;;;4981788;28;20120;-62
2023/12/26 00:06:22;;;;;;;5.03;1.63;;;10.30;99.90;;;;;;4980725;28;20101;-62
2023/12/26 00:08:48;;;;;;;5.53;1.63;;;10.30;99.90;;;;;;4981821;28;20034;-62
2023/12/26 00:11:15;;;;;;;3.30;1.25;;;10.30;99.90;;;;;;4979595;28;20185;-63
2023/12/26 00:13:41;;;;;;;4.18;1.40;;;10.30;99.90;;;;;;4979989;28;20035;-62
2023/12/26 00:16:07;;;;;;;3.58;1.40;;;10.30;99.90;;;;;;4984049;28;20102;-62
2023/12/26 00:18:32;;;;;;;3.88;1.40;;;10.30;99.90;;;;;;4982769;28;20023;-62
2023/12/26 00:20:58;;;;;;;3.72;1.45;;;10.30;99.90;;;;;;4983157;28;20084;-62
2023/12/26 00:23:24;;;;;;;3.83;1.50;;;10.20;99.90;;;;;;4981889;28;20540;-62
2023/12/26 00:25:49;;;;;;;3.13;1.20;;;10.20;99.90;;;;;;4979588;28;20470;-62
2023/12/26 00:28:17;;;;;;;2.60;1.02;;;10.30;99.90;;;;;;4984268;28;20030;-62
2023/12/26 00:30:43;;;;;;;3.20;1.30;;;10.30;99.90;;;;;;4982070;28;20018;-62
2023/12/26 00:33:09;;;;;;;4.80;1.25;;;10.30;99.90;;;;;;4981857;28;20501;-62
2023/12/26 00:35:34;;;;;;;3.22;1.30;;;10.30;99.90;;;;;;4982691;28;20049;-62
2023/12/26 00:38:01;;;;;;;3.65;1.30;;;10.30;99.90;;;;;;4983085;28;20026;-62
2023/12/26 00:40:27;;;;;;;3.75;1.40;;;10.20;99.90;;;;;;4982163;28;20727;-62
2023/12/26 00:42:53;;;;;;;2.95;1.30;;;10.30;99.90;;;;;;4978890;28;20039;-62
2023/12/26 00:45:22;;;;;;;4.32;1.35;;;10.30;99.90;;;;;;4981071;28;20077;-62
2023/12/26 00:47:48;;;;;;;3.47;1.25;;;10.20;99.90;;;;;;4984228;28;20449;-62
2023/12/26 00:50:16;;;;;;;3.33;1.33;;;10.20;99.90;;;;;;4984489;28;20405;-62
2023/12/26 00:52:42;;;;;;;3.28;1.10;;;10.20;99.90;;;;;;4976284;28;20019;-61
2023/12/26 00:55:08;;;;;;;3.95;1.38;;;10.30;99.90;;;;;;4975613;28;20465;-61
2023/12/26 00:57:34;;;;;;;3.40;1.25;;;10.20;99.90;;;;;;4982363;28;20027;-61
2023/12/26 00:59:59;;;;;;;2.22;0.90;;;10.30;99.90;;;;;;4978428;28;20037;-62
2023/12/26 01:02:25;;;;;;;3.63;1.33;;;10.30;99.90;;;;;;4979793;28;20117;-61
2023/12/26 01:04:51;;;;;;;2.80;1.10;;;10.30;99.90;;;;;;4981224;28;20023;-61
2023/12/26 01:07:17;;;;;;;2.97;1.23;;;10.30;99.90;;;;;;4982421;28;20026;-61
2023/12/26 01:09:43;;;;;;;3.20;1.10;;;10.30;99.90;;;;;;4979695;28;20058;-62
2023/12/26 01:12:09;;;;;;;3.85;1.10;;;10.30;99.90;;;;;;4982865;28;20385;-62
2023/12/26 01:14:35;;;;;;;2.78;1.13;;;10.30;99.90;;;;;;4979607;28;20026;-62
2023/12/26 01:17:01;;;;;;;2.80;1.10;;;10.30;99.90;;;;;;4980529;28;20080;-62
2023/12/26 01:19:27;;;;;;;1.83;0.90;;;10.20;99.90;;;;;;4982345;28;20097;-62
2023/12/26 01:21:53;;;;;;;4.68;1.20;;;10.20;99.90;;;;;;4982576;28;20027;-62
2023/12/26 01:24:18;;;;;;;3.00;1.05;;;10.10;99.90;;;;;;4981219;28;20027;-62
2023/12/26 01:26:44;;;;;;;2.17;0.93;;;10.10;99.90;;;;;;4982736;28;20101;-62
2023/12/26 01:29:10;;;;;;;2.55;0.90;;;10.10;99.90;;;;;;4978405;28;20030;-62
2023/12/26 01:31:36;;;;;;;1.95;0.93;;;10.00;99.90;;;;;;4980505;28;20095;-62
2023/12/26 01:34:06;;;;;;;1.92;0.88;;;10.00;99.90;;;;;;4982788;28;20501;-62
2023/12/26 01:36:32;;;;;;;5.22;1.10;;;10.00;99.90;;;;;;4978078;28;20041;-62
2023/12/26 01:38:58;;;;;;;3.10;1.27;;;9.90;99.90;;;;;;4979301;28;20049;-62
2023/12/26 01:41:24;;;;;;;2.75;1.13;;;9.90;99.90;;;;;;4980493;28;20050;-61
2023/12/26 01:43:50;;;;;;;3.53;1.30;;;9.80;99.90;;;;;;4981371;28;20531;-62
2023/12/26 01:46:16;;;;;;;3.17;1.50;;;9.80;99.90;;;;;;4979242;28;20066;-61
2023/12/26 01:48:43;;;;;;;4.25;1.50;;;9.80;99.90;;;;;;4978337;28;20400;-61
2023/12/26 01:51:11;;;;;;;3.33;1.20;;;9.70;99.90;;;;;;4982595;28;20106;-61
2023/12/26 01:53:39;;;;;;;3.08;1.30;;;9.70;99.90;;;;;;4977348;28;20032;-61
2023/12/26 01:56:09;;;;;;;3.55;1.27;;;9.80;99.90;;;;;;4979645;28;20089;-61
2023/12/26 01:58:38;;;;;;;3.15;1.10;;;9.70;99.90;;;;;;4977065;28;20054;-62
2023/12/26 02:01:04;;;;;;;3.10;1.30;;;9.70;99.90;;;;;;4980298;28;20506;-62
2023/12/26 02:03:31;;;;;;;2.95;1.20;;;9.70;99.90;;;;;;4978893;28;20061;-62
2023/12/26 02:05:59;;;;;;;2.38;0.98;;;9.70;99.90;;;;;;4980039;28;20444;-61
2023/12/26 02:08:25;;;;;;;3.78;1.30;;;9.60;99.90;;;;;;4981393;28;20389;-62
2023/12/26 02:10:51;;;;;;;3.75;1.00;;;9.60;99.90;;;;;;4980085;28;20023;-62
2023/12/26 02:13:17;;;;;;;3.47;1.33;;;9.60;99.90;;;;;;4982049;28;20038;-61
2023/12/26 02:15:43;;;;;;;3.88;1.27;;;9.60;99.90;;;;;;4980048;28;20149;-62
2023/12/26 02:18:10;;;;;;;1.20;0.70;;;9.50;99.90;;;;;;4981981;28;20030;-62
2023/12/26 02:20:35;;;;;;;2.17;0.88;;;9.50;99.90;;;;;;4976601;28;20061;-62
2023/12/26 02:23:01;;;;;;;4.10;1.20;;;9.50;99.90;;;;;;4977790;28;20069;-62
2023/12/26 02:25:27;;;;;;;2.78;1.10;;;9.50;99.90;;;;;;4980800;28;20097;-62
2023/12/26 02:27:52;;;;;;;3.40;1.20;;;9.50;99.90;;;;;;4979662;28;20022;-62
2023/12/26 02:30:19;;;;;;;1.48;0.80;;;9.50;99.90;;;;;;4978334;28;20042;-62
2023/12/26 02:32:46;;;;;;;2.38;1.05;;;9.50;99.90;;;;;;4979566;28;20538;-62
2023/12/26 02:35:13;;;;;;;3.63;1.27;;;9.40;99.90;;;;;;4978498;28;20026;-62
2023/12/26 02:37:39;;;;;;;2.88;0.93;;;9.40;99.90;;;;;;4981735;28;20026;-62
2023/12/26 02:40:07;;;;;;;2.70;1.17;;;9.50;99.90;;;;;;4978163;28;20022;-62
2023/12/26 02:42:33;;;;;;;5.85;1.00;;;9.50;99.90;;;;;;4973408;28;20113;-62
2023/12/26 02:44:58;;;;;;;2.85;0.90;;;9.40;99.90;;;;;;4978869;28;20122;-62
2023/12/26 02:47:24;;;;;;;2.00;0.82;;;9.40;99.90;;;;;;4972959;28;20050;-63
2023/12/26 02:49:50;;;;;;;1.58;0.90;;;9.40;99.90;;;;;;4976218;28;20058;-61
2023/12/26 02:52:17;;;;;;;2.42;0.90;;;9.40;99.90;;;;;;4976167;28;20344;-61
2023/12/26 02:54:43;;;;;;;2.50;1.17;;;9.40;99.90;;;;;;4976569;28;20433;-62
2023/12/26 02:57:08;;;;;;;2.53;0.90;;;9.40;99.90;;;;;;4980810;28;20026;-61
2023/12/26 02:59:34;;;;;;;3.60;1.20;;;9.40;99.90;;;;;;4978421;28;20157;-62
2023/12/26 03:02:00;;;;;;;1.70;0.80;;;9.40;99.90;;;;;;4984164;28;20033;-62
2023/12/26 03:04:26;;;;;;;2.58;1.02;;;9.40;99.90;;;;;;4979507;28;20033;-62
2023/12/26 03:06:52;;;;;;;2.65;1.10;;;9.40;99.90;;;;;;4983344;28;20022;-62
2023/12/26 03:09:18;;;;;;;3.53;1.05;;;9.30;99.90;;;;;;4984261;28;20363;-62
2023/12/26 03:11:44;;;;;;;3.50;1.20;;;9.30;99.90;;;;;;4984477;28;20533;-62
2023/12/26 03:14:11;;;;;;;1.88;0.90;;;9.30;99.90;;;;;;4984951;28;20082;-62
2023/12/26 03:16:37;;;;;;;3.20;1.05;;;9.30;99.90;;;;;;4981882;28;20031;-62
2023/12/26 03:19:03;;;;;;;2.50;1.10;;;9.40;99.90;;;;;;4985469;28;20041;-62
2023/12/26 03:21:28;;;;;;;2.83;1.08;;;9.30;99.90;;;;;;4984894;28;20027;-62
2023/12/26 03:23:54;;;;;;;2.03;1.00;;;9.30;99.90;;;;;;4981052;28;20380;-61
2023/12/26 03:26:20;;;;;;;4.28;1.20;;;9.30;99.90;;;;;;4982896;28;20042;-62
2023/12/26 03:28:45;;;;;;;3.55;1.13;;;9.30;99.90;;;;;;4982956;28;20027;-62
2023/12/26 03:31:11;;;;;;;2.35;0.90;;;9.30;99.90;;;;;;4982416;28;20525;-62
2023/12/26 03:33:36;;;;;;;3.42;1.20;;;9.30;99.90;;;;;;4981886;28;20027;-62
2023/12/26 03:36:04;;;;;;;1.88;0.90;;;9.30;99.90;;;;;;4984953;28;20097;-62
2023/12/26 03:38:29;;;;;;;2.78;0.95;;;9.20;99.90;;;;;;4980846;28;20053;-62
2023/12/26 03:40:55;;;;;;;2.90;1.10;;;9.20;99.90;;;;;;4984448;28;20110;-62
2023/12/26 03:43:21;;;;;;;3.85;1.20;;;9.20;99.90;;;;;;4989709;28;20031;-61
2023/12/26 03:45:48;;;;;;;1.88;1.00;;;9.30;99.90;;;;;;4982212;28;20557;-61
2023/12/26 03:48:14;;;;;;;2.65;1.10;;;9.30;99.90;;;;;;4982064;28;20019;-61
2023/12/26 03:50:40;;;;;;;2.78;1.20;;;9.30;99.90;;;;;;4980838;28;20504;-61
2023/12/26 03:53:06;;;;;;;2.45;0.85;;;9.30;99.90;;;;;;4982555;28;20026;-62
2023/12/26 03:55:31;;;;;;;1.85;0.95;;;9.30;99.90;;;;;;4980140;28;20485;-62
2023/12/26 03:57:57;;;;;;;4.20;1.15;;;9.30;99.90;;;;;;4984446;28;20027;-62
2023/12/26 04:00:22;;;;;;;1.92;0.98;;;9.30;99.90;;;;;;4984600;28;20046;-62
2023/12/26 04:02:48;;;;;;;3.83;0.90;;;9.30;99.90;;;;;;4984204;28;20658;-62
2023/12/26 04:05:14;;;;;;;3.83;1.20;;;9.30;99.90;;;;;;4982243;28;20026;-62
2023/12/26 04:07:40;;;;;;;2.53;1.00;;;9.30;99.90;;;;;;4983130;28;20031;-62
2023/12/26 04:10:06;;;;;;;1.52;0.80;;;9.30;99.90;;;;;;4984620;28;20029;-62
2023/12/26 04:12:33;;;;;;;3.17;1.02;;;9.30;99.90;;;;;;4983829;28;20185;-62
2023/12/26 04:14:58;;;;;;;3.03;1.02;;;9.30;99.90;;;;;;4985915;28;20596;-62
2023/12/26 04:17:24;;;;;;;3.00;0.80;;;9.30;99.90;;;;;;4977632;28;20106;-63
2023/12/26 04:19:50;;;;;;;3.95;0.90;;;9.20;99.90;;;;;;4984506;28;20393;-62
2023/12/26 04:22:16;;;;;;;2.05;0.80;;;9.20;99.90;;;;;;4981249;28;20069;-62
2023/12/26 04:24:41;;;;;;;1.70;0.80;;;9.20;99.90;;;;;;4979594;28;20494;-61
2023/12/26 04:27:07;;;;;;;1.42;0.80;;;9.20;99.90;;;;;;4983690;28;20019;-62
2023/12/26 04:29:33;;;;;;;2.08;0.90;;;9.20;99.90;;;;;;4980289;28;20537;-62
2023/12/26 04:31:58;;;;;;;2.15;0.82;;;9.20;99.90;;;;;;4983719;28;20109;-62
2023/12/26 04:34:24;;;;;;;1.77;0.80;;;9.20;99.90;;;;;;4981341;28;20035;-64
2023/12/26 04:36:50;;;;;;;1.23;0.82;;;9.30;99.90;;;;;;4983542;28;20477;-62
2023/12/26 04:39:15;;;;;;;1.13;0.60;;;9.20;99.90;;;;;;4982618;28;20033;-62
2023/12/26 04:41:41;;;;;;;1.27;0.70;;;9.30;99.90;;;;;;4981073;28;20461;-63
2023/12/26 04:44:07;;;;;;;1.48;0.77;;;9.30;99.90;;;;;;4982797;28;20525;-62
2023/12/26 04:46:32;;;;;;;1.80;0.85;;;9.30;99.90;;;;;;4983349;28;20022;-61
2023/12/26 04:48:58;;;;;;;1.35;0.73;;;9.30;99.90;;;;;;4981511;28;20103;-61
2023/12/26 04:51:28;;;;;;;1.38;0.75;;;9.30;99.90;;;;;;4984759;28;20023;-60
2023/12/26 04:53:54;;;;;;;3.95;1.30;;;9.30;99.90;;;;;;4974612;28;20029;-61
2023/12/26 04:56:20;;;;;;;0.95;0.70;;;9.30;99.90;;;;;;4983171;28;20042;-61
2023/12/26 04:58:50;;;;;;;2.17;0.82;;;9.30;99.90;;;;;;4983925;28;20513;-61
2023/12/26 05:01:17;;;;;;;5.05;1.55;;;9.30;99.90;;;;;;4982522;28;20029;-61
2023/12/26 05:03:44;;;;;;;2.95;1.20;;;9.30;99.90;;;;;;4981291;28;20031;-61
2023/12/26 05:06:10;;;;;;;3.05;1.13;;;9.30;99.90;;;;;;4982833;28;20022;-61
2023/12/26 05:08:40;;;;;;;3.45;1.10;;;9.30;99.90;;;;;;4982401;28;20042;-61
2023/12/26 05:11:06;;;;;;;5.03;1.58;;;9.40;99.90;;;;;;4980734;28;20046;-61
2023/12/26 05:13:33;;;;;;;5.45;1.73;;;9.30;99.90;;;;;;4979763;28;20093;-61
2023/12/26 05:16:05;;;;;;;4.80;1.67;;;9.30;99.90;;;;;;4980442;28;20042;-61
2023/12/26 05:18:31;;;;;;;3.33;1.20;;;9.30;99.90;;;;;;4979584;28;20022;-60
2023/12/26 05:20:58;;;;;;;4.80;1.70;;;9.30;99.90;;;;;;4983099;28;20026;-61
2023/12/26 05:23:24;;;;;;;3.85;1.02;;;9.40;99.90;;;;;;4980533;28;20025;-60
2023/12/26 05:25:50;;;;;;;5.72;1.67;;;9.30;99.90;;;;;;4983531;28;20049;-60
2023/12/26 05:28:16;;;;;;;4.70;1.60;;;9.30;99.90;;;;;;4980780;28;20022;-60
2023/12/26 05:30:42;;;;;;;3.33;1.15;;;9.30;99.90;;;;;;4977683;28;20031;-61
2023/12/26 05:33:08;;;;;;;4.68;1.65;;;9.30;99.90;;;;;;4981313;28;20026;-61
2023/12/26 05:35:34;;;;;;;6.43;2.03;;;9.30;99.90;;;;;;4981582;28;20019;-61
2023/12/26 05:38:00;;;;;;;5.25;1.48;;;9.30;99.90;;;;;;4982862;28;20085;-61
2023/12/26 05:40:26;;;;;;;5.93;1.48;;;9.30;99.90;;;;;;4980590;28;20024;-61
2023/12/26 05:42:52;;;;;;;4.53;1.50;;;9.30;99.90;;;;;;4979371;28;20034;-61
2023/12/26 05:45:17;;;;;;;1.85;0.85;;;9.30;99.90;;;;;;4980230;28;20027;-61
2023/12/26 05:47:43;;;;;;;5.13;1.02;;;9.30;99.90;;;;;;4978842;28;20030;-61
2023/12/26 05:50:09;;;;;;;3.70;1.27;;;9.30;99.90;;;;;;4982546;28;20106;-62
2023/12/26 05:52:35;;;;;;;4.65;1.70;;;9.20;99.90;;;;;;4981010;28;20494;-61
2023/12/26 05:55:01;;;;;;;4.82;1.35;;;9.30;99.90;;;;;;4979423;28;20058;-61
2023/12/26 05:57:26;;;;;;;3.13;1.25;;;9.20;99.90;;;;;;4982151;28;20114;-62
2023/12/26 05:59:53;;;;;;;6.30;1.65;;;9.20;99.90;;;;;;4977679;28;20029;-61
2023/12/26 06:02:19;;;;;;;3.67;1.33;;;9.20;99.90;;;;;;4979914;28;20026;-61
2023/12/26 06:04:44;;;;;;;3.90;1.38;;;9.20;99.90;;;;;;4981150;28;20026;-61
2023/12/26 06:07:11;;;;;;;4.15;1.50;;;9.20;99.90;;;;;;4980549;28;20027;-61
2023/12/26 06:09:37;;;;;;;10.38;1.63;;;9.20;99.90;;;;;;4981651;28;20438;-61
2023/12/26 06:12:03;;;;;;;5.68;1.38;;;9.20;99.90;;;;;;4982960;28;20074;-61
2023/12/26 06:14:29;;;;;;;4.10;1.40;;;9.20;99.90;;;;;;4981915;28;20084;-62
2023/12/26 06:16:55;;;;;;;4.78;1.70;;;9.10;99.90;;;;;;4980129;28;20478;-61
2023/12/26 06:19:21;;;;;;;5.82;1.90;;;9.10;99.90;;;;;;4982391;28;20034;-62
2023/12/26 06:21:46;;;;;;;3.65;1.30;;;9.10;99.90;;;;;;4977750;28;20050;-62
2023/12/26 06:24:12;;;;;;;14.23;2.10;;;9.10;99.90;;;;;;4982286;28;20042;-61
2023/12/26 06:26:38;;;;;;;12.20;2.35;;;9.10;99.90;;;;;;4982614;28;20437;-63
2023/12/26 06:29:03;;;;;;;5.00;1.60;;;9.10;99.90;;;;;;4983278;28;20093;-62
2023/12/26 06:31:29;;;;;;;5.10;1.70;;;9.10;99.90;;;;;;4975868;28;20150;-62
2023/12/26 06:33:54;;;;;;;6.18;2.10;;;9.00;99.90;;;;;;4964088;28;20185;-62
2023/12/26 06:36:21;;;;;;;7.55;1.90;;;9.00;99.90;;;;;;4979495;28;20023;-62
2023/12/26 06:38:47;;;;;;;5.80;2.20;;;9.00;99.90;;;;;;4978960;28;20069;-62
2023/12/26 06:41:12;;;;;;;7.78;2.20;;;8.90;99.90;;;;;;4975103;28;20065;-61
2023/12/26 06:43:38;;;;;;;10.70;2.47;;;8.80;99.90;;;;;;4979165;28;20046;-62
2023/12/26 06:46:04;;;;;;;9.43;3.00;;;8.80;99.90;;;;;;4981487;28;20023;-62
2023/12/26 06:48:30;;;;;;;8.00;3.13;;;8.80;99.90;;;;;;4980836;28;20022;-62
2023/12/26 06:50:55;;;;;;;7.45;2.75;;;8.70;99.90;;;;;;4979982;28;20475;-62
2023/12/26 06:53:21;;;;;;;11.50;2.67;;;8.80;99.90;;;;;;4976655;28;20030;-62
2023/12/26 06:55:47;;;;;;;8.80;3.00;;;8.80;99.90;;;;;;4978253;28;20043;-62
2023/12/26 06:58:12;;;;;;;7.47;2.72;;;8.80;99.90;;;;;;4984254;28;20030;-61
2023/12/26 07:00:38;;;;;;;11.05;3.50;;;8.80;99.90;;;;;;4973980;28;20034;-61
2023/12/26 07:03:04;;;;;;;9.43;3.20;;;8.80;99.90;;;;;;4981852;28;20034;-61
2023/12/26 07:05:29;;;;;;;9.32;2.78;;;8.90;99.90;;;;;;4979316;28;20482;-62
2023/12/26 07:07:55;;;;;;;13.93;2.97;;;8.90;99.90;;;;;;4980146;28;20126;-62
2023/12/26 07:10:21;;;;;;;12.27;3.25;;;8.90;99.90;;;;;;4981698;28;20117;-61
2023/12/26 07:12:46;;;;;;;10.68;3.78;;;8.90;99.90;;;;;;4978620;28;20408;-63
2023/12/26 07:15:12;;;;;;;7.45;2.63;;;8.90;99.90;;;;;;4982391;28;20037;-64
2023/12/26 07:17:37;;;;;;;9.02;2.95;;;8.90;99.90;;;;;;4977157;28;20031;-62
2023/12/26 07:20:03;;;;;;;7.40;2.35;;;8.90;99.90;;;;;;4981673;28;20117;-62
2023/12/26 07:22:29;;;;;;;8.43;2.45;;;9.00;99.90;;;;;;4978705;28;20022;-62
2023/12/26 07:24:55;;;;;;;4.60;1.70;;;8.80;99.90;;;;;;4981258;28;20041;-61
2023/12/26 07:27:20;;;;;;;9.23;2.50;;;8.70;99.90;;;;;;4979923;28;20029;-62
2023/12/26 07:29:46;;;;;;;5.50;1.50;;;8.70;99.90;;;;;;4979950;28;20031;-61
2023/12/26 07:32:12;;;;;;;9.23;1.90;;;8.70;99.90;;;;;;4979283;28;20042;-64
2023/12/26 07:34:40;;;;;;;5.45;1.77;;;8.70;99.90;;;;;;4957928;28;20193;-63
2023/12/26 07:37:07;;;;;;;4.35;1.38;;;8.70;99.90;;;;;;4982334;28;20018;-61
2023/12/26 07:39:33;;;;;;;7.85;1.75;;;8.60;99.90;;;;;;4979275;28;20094;-61
2023/12/26 07:42:00;;;;;;;8.07;1.50;;;8.60;99.90;;;;;;4980696;28;20038;-64
2023/12/26 07:44:26;;;;;;;11.38;1.65;;;8.60;99.90;;;;;;4980491;28;20030;-63
2023/12/26 07:46:52;;;;;;;5.85;1.40;;;8.60;99.90;;;;;;4983458;28;20027;-62
2023/12/26 07:49:17;;;;;;;9.90;2.13;;;8.50;99.90;;;;;;4981956;28;20019;-63
2023/12/26 07:51:44;;;;;;;7.68;1.70;;;8.50;99.90;;;;;;4985375;28;20421;-63
2023/12/26 07:54:10;;;;;;;6.10;1.60;;;8.50;99.90;;;;;;4981488;28;20022;-63
2023/12/26 07:56:36;;;;;;;5.55;1.85;;;8.50;99.90;;;;;;4975480;28;20037;-63
2023/12/26 07:59:01;;;;;;;10.25;2.15;;;8.50;99.90;;;;;;4983944;28;20037;-64
2023/12/26 08:01:27;;;;;;;8.63;2.42;;;8.50;99.90;;;;;;4982195;28;20417;-63
2023/12/26 08:03:53;;;;;;;10.32;2.78;;;8.50;99.90;;;;;;4981280;28;20031;-63
2023/12/26 08:06:19;;;;;;;6.97;2.22;;;8.50;99.90;;;;;;4983055;28;20292;-64
2023/12/26 08:08:44;;;;;;;11.18;2.53;;;8.50;99.90;;;;;;4984966;28;20019;-63
2023/12/26 08:11:10;;;;;;;7.95;2.20;;;8.50;99.90;;;;;;4980961;28;20586;-63
2023/12/26 08:13:35;;;;;;;5.60;2.03;;;8.50;99.90;;;;;;4984396;28;20046;-63
2023/12/26 08:16:04;;;;;;;12.02;2.10;;;8.50;99.90;;;;;;4980952;28;20038;-63
2023/12/26 08:18:29;;;;;;;9.90;2.05;;;8.50;99.90;;;;;;4984407;28;20022;-63
2023/12/26 08:20:55;;;;;;;9.63;2.47;;;8.40;99.90;;;;;;4980766;28;20084;-63
2023/12/26 08:23:21;;;;;;;9.95;1.85;;;8.40;99.90;;;;;;4984567;28;20030;-63
2023/12/26 08:25:46;;;;;;;5.60;1.75;;;8.40;99.90;;;;;;4982393;28;20030;-63
2023/12/26 08:28:12;;;;;;;5.70;1.65;;;8.40;99.90;;;;;;4984318;28;20033;-63
2023/12/26 08:30:39;;;;;;;8.48;1.98;;;8.40;99.90;;;;;;4978624;28;20030;-63
2023/12/26 08:33:05;;;;;;;12.65;3.50;;;8.40;99.90;;;;;;4985238;28;20049;-63
2023/12/26 08:35:31;;;;;;;7.47;1.80;;;8.40;99.90;;;;;;4985032;28;20026;-63
2023/12/26 08:37:57;;;;;;;4.43;1.55;;;8.40;99.90;;;;;;4981820;28;20074;-63
2023/12/26 08:40:23;;;;;;;4.93;1.60;;;8.40;99.90;;;;;;4978598;28;20039;-63
2023/12/26 08:42:48;;;;;;;5.45;1.30;;;8.50;99.90;;;;;;4978229;28;20026;-62
2023/12/26 08:45:14;;;;;;;6.05;1.25;;;8.40;99.90;;;;;;4983401;28;20033;-62
2023/12/26 08:47:40;;;;;;;7.28;1.65;;;8.40;99.90;;;;;;4977730;28;20027;-62
2023/12/26 08:50:06;;;;;;;10.35;1.80;;;8.50;99.90;;;;;;4976000;28;20058;-62
2023/12/26 08:52:32;;;;;;;6.10;1.50;;;8.50;99.90;;;;;;4977310;28;20023;-62
2023/12/26 08:54:57;;;;;;;6.07;1.60;;;8.50;99.90;;;;;;4976989;28;20133;-62
2023/12/26 08:57:23;;;;;;;7.05;1.67;;;8.50;99.90;;;;;;4979719;28;20031;-62
2023/12/26 08:59:49;;;;;;;9.35;1.80;;;8.40;99.90;;;;;;4979134;28;20358;-62
2023/12/26 09:02:14;;;;;;;6.47;1.50;;;8.40;99.90;;;;;;4974316;28;20085;-62
2023/12/26 09:04:40;;;;;;;5.13;1.52;;;8.40;99.90;;;;;;4978350;28;20034;-62
2023/12/26 09:07:06;;;;;;;2.72;1.00;;;8.40;99.90;;;;;;4970188;28;20026;-62
2023/12/26 09:09:31;;;;;;;5.10;1.30;;;8.40;99.90;;;;;;4979739;28;20372;-62
2023/12/26 09:11:59;;;;;;;10.27;1.48;;;8.40;99.90;;;;;;4974325;28;20093;-62
2023/12/26 09:14:25;;;;;;;7.85;1.90;;;8.50;99.90;;;;;;4973390;28;20027;-62
2023/12/26 09:16:50;;;;;;;8.48;1.40;;;8.70;99.90;;;;;;4974707;28;20473;-62
2023/12/26 09:19:16;;;;;;;4.25;1.15;;;9.00;99.90;;;;;;4975432;28;20145;-62
2023/12/26 09:21:42;;;;;;;7.72;2.15;;;9.20;99.90;;;;;;4978966;28;20610;-62
2023/12/26 09:24:08;;;;;;;6.88;1.30;;;9.50;99.90;;;;;;4971386;28;20030;-62
2023/12/26 09:26:35;;;;;;;4.75;1.73;;;9.70;99.90;;;;;;4979997;28;20054;-62
2023/12/26 09:29:00;;;;;;;7.60;1.58;;;9.70;99.90;;;;;;4974703;28;20019;-61
2023/12/26 09:31:26;;;;;;;12.98;1.42;;;9.50;99.90;;;;;;4976708;28;20011;-62
2023/12/26 09:33:51;;;;;;;2.65;1.02;;;9.20;99.90;;;;;;4973484;28;20457;-62
2023/12/26 09:36:17;;;;;;;4.30;1.30;;;8.90;99.90;;;;;;4977047;28;20081;-62
2023/12/26 09:38:43;;;;;;;5.28;1.35;;;8.70;99.90;;;;;;4972484;28;20039;-62
2023/12/26 09:41:12;;;;;;;6.80;1.63;;;8.60;99.90;;;;;;4973268;28;20037;-61
2023/12/26 09:43:38;;;;;;;7.57;1.83;;;8.50;99.90;;;;;;4973669;28;20039;-61
2023/12/26 09:46:04;;;;;;;7.82;1.38;;;8.40;99.90;;;;;;4976023;28;20019;-64
2023/12/26 09:48:33;;;;;;;7.03;1.40;;;8.40;99.90;;;;;;4976599;28;20053;-62
2023/12/26 09:51:03;;;;;;;5.78;1.23;;;8.40;99.90;;;;;;4974502;28;20069;-62
2023/12/26 09:53:33;;;;;;;5.10;1.20;;;8.50;99.90;;;;;;4967907;28;20027;-63
2023/12/26 09:55:59;;;;;;;10.07;1.50;;;8.60;99.90;;;;;;4968001;28;20525;-63
2023/12/26 09:58:26;;;;;;;8.43;1.90;;;8.80;99.90;;;;;;4978912;28;20268;-62
2023/12/26 10:00:53;;;;;;;8.13;2.20;;;8.90;99.90;;;;;;4974830;28;20130;-62
2023/12/26 10:03:19;;;;;;;12.05;1.40;;;9.20;99.90;;;;;;4975679;28;20018;-62
2023/12/26 10:05:45;;;;;;;4.88;1.35;;;9.50;99.90;;;;;;4975452;28;20034;-62
2023/12/26 10:08:11;;;;;;;7.25;1.40;;;10.00;99.90;;;;;;4973499;28;20495;-61
2023/12/26 10:10:36;;;;;;;5.20;1.27;;;10.50;99.90;;;;;;4971977;28;20451;-61
2023/12/26 10:13:02;;;;;;;7.55;1.80;;;10.50;99.90;;;;;;4976349;28;20054;-61
2023/12/26 10:15:28;;;;;;;8.07;1.55;;;10.70;99.90;;;;;;4977386;28;20018;-61
2023/12/26 10:17:55;;;;;;;5.28;1.30;;;10.70;99.90;;;;;;4974456;28;20086;-61
2023/12/26 10:20:21;;;;;;;10.23;2.22;;;10.60;99.90;;;;;;4972913;28;20023;-62
2023/12/26 10:22:46;;;;;;;6.60;1.67;;;10.50;99.90;;;;;;4981834;28;20486;-63
2023/12/26 10:25:13;;;;;;;11.73;1.75;;;10.00;99.90;;;;;;4978059;28;20092;-62
2023/12/26 10:27:39;;;;;;;9.38;2.00;;;9.60;99.90;;;;;;4972761;28;20106;-63
2023/12/26 10:30:05;;;;;;;7.43;1.80;;;9.30;99.90;;;;;;4976647;28;20066;-62
2023/12/26 10:32:32;;;;;;;8.93;2.28;;;9.20;99.90;;;;;;4968942;28;20022;-63
2023/12/26 10:35:13;;;;;;;4.97;1.50;;;9.10;99.90;;;;;;4979913;28;20097;-63
2023/12/26 10:37:39;;;;;;;13.73;2.25;;;9.10;99.90;;;;;;4974196;28;20109;-63
2023/12/26 10:40:05;;;;;;;9.30;2.15;;;9.00;99.90;;;;;;4977566;28;20389;-63
2023/12/26 10:42:31;;;;;;;9.52;2.33;;;8.90;99.90;;;;;;4967411;28;20026;-63
2023/12/26 10:45:08;;;;;;;12.82;2.35;;;8.70;99.90;;;;;;4975219;28;20030;-63
2023/12/26 10:47:34;;;;;;;8.45;1.73;;;8.60;99.90;;;;;;4967567;28;20034;-63
2023/12/26 10:50:02;;;;;;;11.52;2.20;;;8.60;99.90;;;;;;4972472;28;20470;-64
2023/12/26 10:52:29;;;;;;;9.27;2.58;;;8.60;99.90;;;;;;4975138;28;20123;-63
2023/12/26 10:55:00;;;;;;;10.77;2.25;;;8.50;99.90;;;;;;4963322;28;20142;-63
2023/12/26 10:57:29;;;;;;;3.53;1.30;;;8.50;99.90;;;;;;4973701;28;20027;-63
2023/12/26 11:00:49;;;;;;;9.30;2.05;;;8.60;99.90;;;;;;4975810;28;20025;-63
2023/12/26 13:52:16;;;;;;;10.70;2.20;;;9.20;99.90;;;;;;4981091;28;20081;-62
2023/12/26 13:55:19;;;;;;;7.15;1.77;;;9.10;99.90;;;;;;4979458;28;20141;-62
2023/12/26 13:58:23;;;;;;;5.78;1.75;;;9.10;99.90;;;;;;4978355;28;20109;-62
2023/12/26 14:01:26;;;;;;;11.15;2.45;;;9.00;99.90;;;;;;4975563;28;20022;-62
2023/12/26 14:04:29;;;;;;;9.02;1.90;;;9.00;99.90;;;;;;4979742;28;20066;-62
2023/12/26 14:07:32;;;;;;;5.43;1.80;;;9.00;99.90;;;;;;4979867;28;20030;-62
2023/12/26 14:10:35;;;;;;;7.22;2.00;;;9.00;99.90;;;;;;4980702;28;20027;-62
2023/12/26 14:13:38;;;;;;;10.95;2.10;;;9.00;99.90;;;;;;4977086;28;20046;-63
2023/12/26 14:16:41;;;;;;;8.27;2.17;;;9.00;99.90;;;;;;4987062;28;20034;-62
2023/12/26 14:19:44;;;;;;;16.48;2.28;;;8.90;99.90;;;;;;4974373;28;20435;-62
2023/12/26 14:22:47;;;;;;;9.43;2.72;;;8.90;99.90;;;;;;4976151;28;20034;-63
2023/12/26 14:25:50;;;;;;;12.65;1.90;;;8.90;99.90;;;;;;4976452;28;20041;-62
2023/12/26 14:28:53;;;;;;;19.77;2.72;;;8.90;99.90;;;;;;4978840;28;20023;-62
2023/12/26 14:31:56;;;;;;;10.73;2.33;;;8.80;99.90;;;;;;4978404;28;20471;-62
2023/12/26 14:35:01;;;;;;;10.85;2.03;;;8.70;99.90;;;;;;4978760;28;20022;-62
2023/12/26 14:38:04;;;;;;;12.80;2.53;;;8.70;99.90;;;;;;4980957;28;20466;-63
2023/12/26 14:41:08;;;;;;;6.68;1.63;;;8.60;99.90;;;;;;4975873;28;20105;-63
2023/12/26 14:44:11;;;;;;;8.60;2.05;;;10.00;99.90;;;;;;4963059;28;20074;-62
2023/12/26 14:47:14;;;;;;;6.32;1.80;;;8.60;99.90;;;;;;4963637;28;20659;-62
2023/12/26 14:50:17;;;;;;;12.70;2.72;;;8.60;99.90;;;;;;4969336;28;21527;-62
2023/12/26 14:53:20;;;;;;;9.50;1.92;;;8.50;99.90;;;;;;4972632;28;20035;-61
2023/12/26 14:56:23;;;;;;;10.50;2.40;;;8.50;99.90;;;;;;4977039;28;20035;-61
2023/12/26 14:59:26;;;;;;;13.50;2.35;;;8.50;99.90;;;;;;4970197;28;20035;-61
2023/12/26 15:02:01;;;;;;;7.03;1.92;;;8.50;99.90;;;;;;4961554;28;20034;-61
2023/12/26 15:04:28;;;;;;;7.88;1.70;;;8.50;99.90;;;;;;4969110;28;20026;-61
2023/12/26 15:06:57;;;;;;;7.50;1.90;;;8.50;99.90;;;;;;4979156;28;20033;-61
2023/12/26 15:09:22;;;;;;;10.48;2.00;;;8.50;99.90;;;;;;4976227;28;20022;-61
2023/12/26 15:11:48;;;;;;;14.68;2.33;;;8.50;99.90;;;;;;4976867;28;20061;-61
2023/12/26 15:14:14;;;;;;;8.88;2.20;;;8.50;99.90;;;;;;4977389;28;20128;-61
2023/12/26 15:16:39;;;;;;;5.38;1.88;;;8.50;99.90;;;;;;4976474;28;20042;-61
2023/12/26 15:19:05;;;;;;;6.00;1.92;;;8.50;99.90;;;;;;4976879;28;20030;-61
2023/12/26 15:21:31;;;;;;;10.40;1.80;;;8.40;99.90;;;;;;4973465;28;20018;-61
2023/12/26 15:23:56;;;;;;;5.57;1.77;;;8.40;99.90;;;;;;4972809;28;20030;-61
2023/12/26 15:26:22;;;;;;;12.07;2.42;;;8.40;99.90;;;;;;4974635;28;20368;-61
2023/12/26 15:28:48;;;;;;;9.43;1.88;;;8.40;99.90;;;;;;4975117;28;20389;-61
2023/12/26 15:31:19;;;;;;;7.97;1.92;;;8.30;99.90;;;;;;4965040;28;20035;-61
2023/12/26 15:33:47;;;;;;;7.20;1.80;;;8.30;99.90;;;;;;4972797;28;20026;-62
2023/12/26 15:36:26;;;;;;;10.65;2.47;;;8.30;99.90;;;;;;4975355;28;20031;-61
2023/12/26 15:38:53;;;;;;;8.30;1.92;;;8.30;99.90;;;;;;4976030;28;20026;-61
2023/12/26 15:41:23;;;;;;;5.15;1.50;;;8.30;99.90;;;;;;4976421;28;20030;-61
2023/12/26 15:43:52;;;;;;;8.88;2.42;;;8.30;99.90;;;;;;4976546;28;20034;-61
2023/12/26 15:46:18;;;;;;;12.75;1.90;;;8.30;99.90;;;;;;4966692;28;20063;-61
2023/12/26 15:48:45;;;;;;;7.93;1.92;;;8.20;99.90;;;;;;4978412;28;20027;-61
2023/12/26 15:51:13;;;;;;;9.35;2.67;;;8.20;99.90;;;;;;4970107;28;20027;-62